Time;durP1;ratioP1;P1;durP2;ratioP2;P2;SDS_P1;SDS_P2;PMS_P1;PMS_P2;Temp;Humidity;BMP_temperature;BMP_pressure;BME280_temperature;BME280_humidity;BME280_pressure;Samples;Min_cycle;Max_cycle;Signal;HPM_P1;HPM_P2
2021/09/29 00:00:54;;;;;;;17.05;10.55;;;;;;;11.34;77.75;95285.04;1689292;83;21064;-57
2021/09/29 00:03:21;;;;;;;16.82;8.80;;;;;;;11.32;77.96;95286.08;1666696;83;21203;-58
2021/09/29 00:05:48;;;;;;;18.15;9.85;;;;;;;11.30;78.01;95281.63;1694677;83;21583;-57
2021/09/29 00:08:14;;;;;;;14.83;9.95;;;;;;;11.25;78.28;95278.04;1668318;83;21102;-60
2021/09/29 00:10:42;;;;;;;21.60;11.48;;;;;;;11.21;78.38;95282.86;1687085;83;21021;-57
2021/09/29 00:13:09;;;;;;;21.82;11.85;;;;;;;11.19;78.61;95292.17;1697750;83;21022;-57
2021/09/29 00:16:15;;;;;;;18.07;10.90;;;;;;;11.18;78.77;95279.61;1700537;83;21031;-57
2021/09/29 00:19:19;;;;;;;19.80;10.45;;;;;;;11.21;78.79;95282.86;1704826;83;20981;-56
2021/09/29 00:21:55;;;;;;;17.48;9.95;;;;;;;11.21;78.75;95289.74;1665224;83;21083;-56
2021/09/29 00:24:23;;;;;;;20.92;11.80;;;;;;;11.22;78.81;95280.89;1693900;83;21156;-56
2021/09/29 00:26:51;;;;;;;19.25;10.05;;;;;;;11.23;78.96;95283.22;1688572;83;21098;-56
2021/09/29 00:29:18;;;;;;;20.05;10.85;;;;;;;11.26;78.75;95285.09;1679445;83;21008;-56
2021/09/29 00:31:45;;;;;;;19.05;11.95;;;;;;;11.29;78.34;95277.33;1697475;83;21084;-56
2021/09/29 00:34:13;;;;;;;14.33;9.88;;;;;;;11.30;78.29;95271.98;1683167;83;21020;-56
2021/09/29 00:36:43;;;;;;;16.52;9.38;;;;;;;11.34;78.39;95271.88;1698652;84;21193;-57
2021/09/29 00:39:11;;;;;;;17.12;10.43;;;;;;;11.38;78.25;95269.17;1695244;83;21060;-56
2021/09/29 00:41:41;;;;;;;17.12;10.55;;;;;;;11.36;78.28;95271.59;1690988;83;21029;-56
2021/09/29 00:44:09;;;;;;;16.10;9.75;;;;;;;11.33;78.49;95272.48;1677736;83;20972;-57
2021/09/29 00:46:36;;;;;;;17.75;10.90;;;;;;;11.35;78.47;95269.30;1684772;84;21063;-57
2021/09/29 00:49:03;;;;;;;18.20;9.68;;;;;;;11.33;78.40;95264.21;1686360;83;21158;-56
2021/09/29 00:51:29;;;;;;;19.62;9.80;;;;;;;11.31;78.48;95270.77;1691600;83;20972;-57
2021/09/29 00:53:57;;;;;;;16.50;10.23;;;;;;;11.30;78.58;95270.61;1694543;83;21020;-56
2021/09/29 00:56:23;;;;;;;17.82;10.65;;;;;;;11.27;78.73;95264.59;1686983;83;21119;-57
2021/09/29 00:58:50;;;;;;;15.08;9.75;;;;;;;11.24;78.90;95261.34;1692839;83;20969;-57
2021/09/29 01:01:17;;;;;;;18.73;10.55;;;;;;;11.20;79.15;95264.03;1685659;83;21103;-57
2021/09/29 01:03:45;;;;;;;17.60;11.10;;;;;;;11.18;79.26;95263.70;1693429;83;20960;-57
2021/09/29 01:06:40;;;;;;;17.77;9.88;;;;;;;11.15;79.34;95261.21;1699241;83;21012;-57
2021/09/29 01:09:14;;;;;;;16.57;9.30;;;;;;;11.10;79.25;95257.63;1689118;83;21547;-56
2021/09/29 01:11:59;;;;;;;22.32;11.08;;;;;;;11.08;79.22;95251.79;1669591;85;20979;-57
2021/09/29 01:14:32;;;;;;;19.98;11.18;;;;;;;11.04;79.18;95255.26;1697025;83;21103;-56
2021/09/29 01:17:01;;;;;;;14.78;9.38;;;;;;;11.03;79.14;95261.98;1686492;83;21775;-57
2021/09/29 01:20:12;;;;;;;14.28;9.35;;;;;;;11.07;79.25;95261.85;1702369;83;21526;-57
2021/09/29 01:23:06;;;;;;;17.40;9.68;;;;;;;11.02;79.12;95250.77;1694180;83;20973;-58
2021/09/29 01:25:48;;;;;;;16.07;8.98;;;;;;;11.00;79.31;95252.43;1679840;83;21008;-57
2021/09/29 01:28:18;;;;;;;14.00;9.88;;;;;;;11.01;79.42;95248.47;1698110;83;21813;-56
2021/09/29 01:30:45;;;;;;;14.35;8.88;;;;;;;11.02;79.42;95252.14;1677592;83;21495;-55
2021/09/29 01:33:12;;;;;;;15.72;8.85;;;;;;;11.05;79.39;95252.67;1677762;84;21163;-56
2021/09/29 01:35:39;;;;;;;13.53;9.20;;;;;;;11.08;79.41;95249.62;1685108;83;21004;-56
2021/09/29 01:38:06;;;;;;;21.90;10.30;;;;;;;11.06;79.35;95251.46;1677442;83;20980;-56
2021/09/29 01:40:33;;;;;;;13.65;8.98;;;;;;;11.03;79.42;95247.42;1683073;83;21102;-57
2021/09/29 01:43:00;;;;;;;12.70;8.53;;;;;;;11.06;79.33;95246.55;1694941;83;21421;-57
2021/09/29 01:45:27;;;;;;;18.32;8.28;;;;;;;11.04;79.30;95244.84;1688002;83;21028;-57
2021/09/29 01:47:54;;;;;;;11.83;8.25;;;;;;;11.03;79.40;95245.45;1676982;83;21421;-57
2021/09/29 01:50:25;;;;;;;11.53;8.18;;;;;;;11.02;79.33;95248.02;1683870;83;21028;-57
2021/09/29 01:52:52;;;;;;;12.68;9.15;;;;;;;10.98;79.33;95245.97;1686443;83;21149;-56
2021/09/29 01:55:19;;;;;;;12.80;8.70;;;;;;;10.95;79.63;95248.85;1679794;84;21534;-56
2021/09/29 01:57:47;;;;;;;20.35;11.10;;;;;;;10.96;79.64;95244.89;1686130;83;21072;-56
2021/09/29 02:00:16;;;;;;;19.20;9.55;;;;;;;10.92;79.48;95243.60;1687255;83;21092;-56
2021/09/29 02:02:43;;;;;;;20.52;10.38;;;;;;;10.95;79.50;95235.09;1677967;83;21139;-56
2021/09/29 02:05:12;;;;;;;14.93;10.55;;;;;;;11.01;79.34;95237.45;1700215;83;21144;-56
2021/09/29 02:07:40;;;;;;;14.03;9.15;;;;;;;11.06;79.17;95241.04;1695093;83;21077;-56
2021/09/29 02:10:09;;;;;;;16.45;9.65;;;;;;;11.08;79.10;95248.25;1686638;83;21610;-58
2021/09/29 02:12:37;;;;;;;15.43;8.50;;;;;;;11.11;79.02;95249.53;1692463;83;20981;-58
2021/09/29 02:15:06;;;;;;;13.32;7.95;;;;;;;11.14;78.91;95245.14;1679406;83;20984;-57
2021/09/29 02:17:33;;;;;;;14.53;8.13;;;;;;;11.12;78.88;95251.08;1694612;83;21718;-57
2021/09/29 02:19:59;;;;;;;8.55;7.22;;;;;;;11.05;79.13;95252.67;1689745;83;21186;-56
2021/09/29 02:22:26;;;;;;;13.38;8.00;;;;;;;11.00;79.27;95253.19;1677614;83;21052;-57
2021/09/29 02:24:53;;;;;;;17.52;8.23;;;;;;;10.97;79.24;95248.56;1693162;83;20983;-56
2021/09/29 02:27:20;;;;;;;21.27;11.28;;;;;;;10.92;79.24;95257.37;1680492;83;20996;-58
2021/09/29 02:29:46;;;;;;;12.40;8.93;;;;;;;10.91;79.48;95254.45;1694924;83;21119;-57
2021/09/29 02:32:13;;;;;;;18.05;7.45;;;;;;;10.94;79.58;95256.32;1692265;83;20988;-56
2021/09/29 02:34:41;;;;;;;10.70;7.40;;;;;;;11.00;79.46;95247.69;1695337;83;20965;-57
2021/09/29 02:37:08;;;;;;;17.98;8.15;;;;;;;11.00;79.11;95261.45;1685874;83;21016;-57
2021/09/29 02:39:35;;;;;;;10.30;7.80;;;;;;;10.93;79.24;95265.80;1678720;83;20985;-58
2021/09/29 02:42:04;;;;;;;10.40;7.20;;;;;;;10.90;79.35;95259.79;1688176;83;21258;-56
2021/09/29 02:44:35;;;;;;;13.32;7.78;;;;;;;10.91;79.44;95257.20;1689614;83;20965;-58
2021/09/29 02:47:03;;;;;;;14.40;6.62;;;;;;;10.92;79.17;95261.49;1700895;83;20965;-58
2021/09/29 02:49:30;;;;;;;13.32;7.55;;;;;;;10.91;79.25;95255.04;1684160;83;20969;-58
2021/09/29 02:51:57;;;;;;;15.08;7.72;;;;;;;10.90;79.18;95256.25;1681825;83;21008;-57
2021/09/29 02:54:24;;;;;;;14.80;8.60;;;;;;;10.90;79.17;95259.79;1666087;84;21822;-57
2021/09/29 02:56:50;;;;;;;13.25;9.30;;;;;;;10.93;79.14;95258.13;1684390;83;21031;-57
2021/09/29 02:59:17;;;;;;;13.45;8.68;;;;;;;10.95;79.10;95256.48;1690675;83;21483;-57
2021/09/29 03:01:44;;;;;;;19.17;11.00;;;;;;;10.94;79.14;95252.78;1700473;83;21504;-57
2021/09/29 03:04:11;;;;;;;13.68;7.78;;;;;;;10.93;78.96;95256.16;1686180;83;21048;-57
2021/09/29 03:06:37;;;;;;;9.15;6.80;;;;;;;10.95;78.95;95256.48;1701599;83;21173;-58
2021/09/29 03:09:04;;;;;;;13.98;7.40;;;;;;;10.96;78.63;95259.41;1703320;84;21579;-57
2021/09/29 03:11:32;;;;;;;9.58;7.10;;;;;;;10.93;78.64;95260.87;1675469;84;21559;-55
2021/09/29 03:13:59;;;;;;;14.07;7.75;;;;;;;10.93;78.74;95257.53;1695435;83;21057;-57
2021/09/29 03:16:26;;;;;;;12.60;7.47;;;;;;;10.97;78.62;95262.33;1703609;84;21067;-57
2021/09/29 03:18:54;;;;;;;12.80;8.85;;;;;;;11.03;78.58;95259.22;1679650;83;21140;-56
2021/09/29 03:21:23;;;;;;;13.53;8.20;;;;;;;11.06;78.39;95257.55;1693327;83;20977;-57
2021/09/29 03:23:50;;;;;;;14.15;7.87;;;;;;;11.08;78.50;95254.55;1703695;84;20985;-56
2021/09/29 03:26:16;;;;;;;12.55;7.33;;;;;;;11.13;78.28;95253.23;1687258;83;21029;-57
2021/09/29 03:28:45;;;;;;;15.28;9.23;;;;;;;11.14;78.25;95256.91;1683461;84;21032;-55
2021/09/29 03:31:13;;;;;;;17.20;10.55;;;;;;;11.16;78.24;95252.36;1690103;82;21180;-57
2021/09/29 03:33:40;;;;;;;17.77;10.65;;;;;;;11.14;78.32;95254.16;1688838;83;21554;-57
2021/09/29 03:36:07;;;;;;;22.02;13.20;;;;;;;11.18;78.25;95256.20;1711875;83;21101;-57
2021/09/29 03:38:34;;;;;;;21.52;11.55;;;;;;;11.17;78.06;95257.41;1687635;83;21055;-63
2021/09/29 03:41:01;;;;;;;22.62;12.73;;;;;;;11.21;78.11;95253.94;1690688;83;21015;-58
2021/09/29 03:43:28;;;;;;;21.82;12.82;;;;;;;11.26;78.16;95259.52;1702017;83;21151;-56
2021/09/29 03:45:56;;;;;;;16.82;9.73;;;;;;;11.35;77.71;95260.41;1691069;83;21530;-56
2021/09/29 03:48:24;;;;;;;19.52;9.13;;;;;;;11.39;77.29;95252.80;1662246;84;21021;-59
2021/09/29 03:50:50;;;;;;;16.35;9.08;;;;;;;11.34;77.11;95251.98;1673449;83;21455;-57
2021/09/29 03:53:18;;;;;;;13.75;8.40;;;;;;;11.34;77.24;95242.34;1711875;83;21560;-55
2021/09/29 03:55:45;;;;;;;9.73;7.53;;;;;;;11.37;77.19;95248.34;1677080;84;21201;-56
2021/09/29 03:58:12;;;;;;;10.35;7.20;;;;;;;11.41;77.19;95253.75;1704433;83;21478;-57
2021/09/29 04:00:38;;;;;;;8.33;7.10;;;;;;;11.43;77.16;95253.49;1674024;83;20971;-58
2021/09/29 04:03:07;;;;;;;10.88;7.08;;;;;;;11.45;77.18;95255.20;1701973;83;21557;-59
2021/09/29 04:05:34;;;;;;;15.53;7.53;;;;;;;11.51;76.89;95251.30;1699087;83;20963;-57
2021/09/29 04:08:01;;;;;;;12.15;7.03;;;;;;;11.54;76.62;95252.54;1691247;83;22359;-59
2021/09/29 04:10:29;;;;;;;9.95;7.17;;;;;;;11.52;76.59;95254.97;1697817;83;21042;-59
2021/09/29 04:12:56;;;;;;;10.28;6.80;;;;;;;11.55;76.49;95256.08;1698421;83;21071;-59
2021/09/29 04:15:23;;;;;;;10.43;6.87;;;;;;;11.56;76.27;95252.14;1680577;83;20979;-60
2021/09/29 04:17:50;;;;;;;9.60;7.10;;;;;;;11.56;76.36;95258.41;1698387;83;21153;-59
2021/09/29 04:20:16;;;;;;;11.73;7.28;;;;;;;11.59;76.17;95261.69;1713158;83;21147;-58
2021/09/29 04:22:43;;;;;;;8.65;6.72;;;;;;;11.56;76.14;95264.55;1684770;83;20972;-56
2021/09/29 04:25:11;;;;;;;11.68;7.78;;;;;;;11.52;76.20;95261.86;1704891;83;20996;-57
2021/09/29 04:27:39;;;;;;;13.45;8.48;;;;;;;11.49;76.26;95258.61;1682107;83;21078;-57
2021/09/29 04:30:07;;;;;;;12.43;7.05;;;;;;;11.45;76.14;95258.55;1698015;83;21568;-56
2021/09/29 04:32:34;;;;;;;13.20;8.20;;;;;;;11.43;76.29;95260.37;1697208;83;21153;-56
2021/09/29 04:35:01;;;;;;;14.83;8.93;;;;;;;11.44;76.38;95264.67;1690937;83;21427;-56
2021/09/29 04:37:28;;;;;;;29.15;9.50;;;;;;;11.49;76.48;95262.74;1699815;83;21006;-57
2021/09/29 04:39:55;;;;;;;19.60;9.45;;;;;;;11.51;76.63;95261.69;1682612;83;21875;-57
2021/09/29 04:42:22;;;;;;;15.50;9.60;;;;;;;11.55;76.48;95263.73;1693064;83;20959;-57
2021/09/29 04:44:50;;;;;;;14.98;9.93;;;;;;;11.60;76.32;95267.36;1693758;83;21534;-57
2021/09/29 04:47:16;;;;;;;17.92;9.03;;;;;;;11.59;76.11;95266.41;1699804;83;20998;-58
2021/09/29 04:49:43;;;;;;;19.42;8.63;;;;;;;11.62;76.13;95266.31;1692527;83;21482;-57
2021/09/29 04:52:10;;;;;;;26.20;16.05;;;;;;;11.69;75.68;95274.35;1695057;83;21102;-57
2021/09/29 04:54:37;;;;;;;14.78;10.68;;;;;;;11.67;75.62;95276.78;1688497;83;21063;-57
2021/09/29 04:57:04;;;;;;;28.32;11.08;;;;;;;11.62;75.71;95274.58;1686707;83;21180;-58
2021/09/29 04:59:32;;;;;;;16.70;9.75;;;;;;;11.62;75.80;95274.58;1698746;83;21041;-58
2021/09/29 05:01:59;;;;;;;13.90;9.70;;;;;;;11.68;75.67;95280.32;1698448;83;21027;-57
2021/09/29 05:04:26;;;;;;;15.15;9.73;;;;;;;11.71;75.66;95277.44;1708198;83;21589;-58
2021/09/29 05:06:53;;;;;;;17.55;11.48;;;;;;;11.76;75.62;95275.52;1690046;83;20976;-58
2021/09/29 05:09:20;;;;;;;22.52;14.75;;;;;;;11.83;75.29;95275.29;1699797;83;21182;-57
2021/09/29 05:12:01;;;;;;;33.60;14.05;;;;;;;11.85;75.21;95281.73;1702072;83;21022;-57
2021/09/29 05:14:27;;;;;;;25.35;15.23;;;;;;;11.89;75.22;95284.54;1695841;83;21011;-58
2021/09/29 05:16:54;;;;;;;34.00;18.48;;;;;;;11.97;74.89;95285.09;1697699;83;20979;-58
2021/09/29 05:19:21;;;;;;;29.85;17.32;;;;;;;12.02;74.73;95283.93;1713001;83;21002;-57
2021/09/29 05:21:48;;;;;;;35.10;19.85;;;;;;;12.11;74.50;95285.39;1675991;83;21050;-58
2021/09/29 05:24:15;;;;;;;29.10;16.87;;;;;;;12.21;74.11;95273.25;1709967;83;21299;-58
2021/09/29 05:26:42;;;;;;;26.90;14.78;;;;;;;12.28;73.84;95284.67;1687870;83;21069;-58
2021/09/29 05:29:10;;;;;;;23.47;12.25;;;;;;;12.32;73.39;95279.20;1691230;82;21186;-61
2021/09/29 05:31:37;;;;;;;27.22;13.55;;;;;;;12.38;73.07;95284.31;1664518;82;21557;-60
2021/09/29 05:34:04;;;;;;;28.80;17.90;;;;;;;12.47;72.84;95284.38;1694783;82;21139;-58
2021/09/29 05:36:31;;;;;;;32.45;18.70;;;;;;;12.49;72.66;95276.42;1678262;83;21067;-62
2021/09/29 05:38:58;;;;;;;28.50;15.60;;;;;;;12.52;72.71;95281.08;1690061;82;21094;-59
2021/09/29 05:41:25;;;;;;;36.90;15.88;;;;;;;12.53;72.74;95284.59;1699334;82;21419;-58
2021/09/29 05:43:52;;;;;;;27.48;15.55;;;;;;;12.47;72.82;95284.38;1677973;82;22420;-59
2021/09/29 05:46:18;;;;;;;35.68;17.85;;;;;;;12.42;72.73;95293.23;1671059;82;21801;-57
2021/09/29 05:48:45;;;;;;;30.15;14.23;;;;;;;12.39;72.64;95288.61;1701297;82;21454;-60
2021/09/29 05:51:12;;;;;;;24.02;12.80;;;;;;;12.39;72.70;95284.47;1692810;82;21097;-59
2021/09/29 05:53:39;;;;;;;28.75;14.58;;;;;;;12.39;72.76;95291.97;1698282;82;21113;-62
2021/09/29 05:56:07;;;;;;;32.70;15.38;;;;;;;12.45;72.81;95291.58;1689893;82;21071;-58
2021/09/29 05:58:34;;;;;;;32.98;16.87;;;;;;;12.52;72.46;95294.88;1662960;83;23002;-58
2021/09/29 06:01:01;;;;;;;42.80;18.67;;;;;;;12.52;72.10;95292.12;1676736;83;21066;-58
2021/09/29 06:03:28;;;;;;;46.13;18.48;;;;;;;12.56;71.92;95296.90;1700806;82;21085;-56
2021/09/29 06:05:56;;;;;;;31.68;16.48;;;;;;;12.65;71.62;95294.20;1672360;82;21082;-57
2021/09/29 06:08:22;;;;;;;62.40;16.82;;;;;;;12.69;71.58;95297.02;1701987;82;21047;-59
2021/09/29 06:10:49;;;;;;;53.35;14.95;;;;;;;12.77;71.46;95292.02;1687808;82;21129;-59
2021/09/29 06:13:16;;;;;;;37.98;13.65;;;;;;;12.83;71.32;95291.60;1697384;82;21108;-55
2021/09/29 06:15:44;;;;;;;31.12;12.80;;;;;;;12.83;70.98;95296.53;1680114;82;21098;-57
2021/09/29 06:18:15;;;;;;;20.48;9.88;;;;;;;12.89;70.78;95293.97;1707299;82;21124;-60
2021/09/29 06:20:50;;;;;;;22.30;11.15;;;;;;;12.98;69.93;95299.58;1688021;82;21927;-59
2021/09/29 06:23:17;;;;;;;18.05;11.00;;;;;;;13.03;69.80;95297.62;1689178;82;21136;-56
2021/09/29 06:25:46;;;;;;;19.10;10.03;;;;;;;13.06;69.84;95292.59;1696598;82;21058;-58
2021/09/29 06:28:14;;;;;;;13.50;8.05;;;;;;;13.10;69.27;95294.62;1674794;83;21066;-59
2021/09/29 06:30:41;;;;;;;11.05;7.20;;;;;;;13.09;68.87;95297.98;1680230;82;21081;-57
2021/09/29 06:33:08;;;;;;;10.60;6.80;;;;;;;13.13;68.37;95296.48;1698332;82;21090;-56
2021/09/29 06:35:35;;;;;;;10.63;6.30;;;;;;;13.14;67.90;95289.13;1686367;82;21128;-56
2021/09/29 06:38:03;;;;;;;8.45;6.28;;;;;;;13.17;67.90;95287.44;1700859;82;20987;-57
2021/09/29 06:40:30;;;;;;;11.20;6.45;;;;;;;13.17;68.18;95294.34;1665614;83;21129;-57
2021/09/29 06:43:03;;;;;;;7.75;5.95;;;;;;;13.18;67.51;95288.98;1661828;83;21105;-57
2021/09/29 06:45:29;;;;;;;9.33;6.75;;;;;;;13.24;67.17;95288.58;1695680;82;21624;-57
2021/09/29 06:47:58;;;;;;;12.88;8.38;;;;;;;13.32;66.85;95291.23;1689278;82;21881;-59
2021/09/29 06:50:25;;;;;;;12.90;7.37;;;;;;;13.35;66.45;95288.34;1674362;83;21563;-61
2021/09/29 06:52:52;;;;;;;12.55;7.22;;;;;;;13.38;66.04;95292.18;1696517;83;20980;-59
2021/09/29 06:55:23;;;;;;;12.30;7.92;;;;;;;13.40;65.76;95295.26;1693668;83;21155;-57
2021/09/29 06:57:52;;;;;;;9.58;7.37;;;;;;;13.32;65.64;95300.91;1676720;83;21556;-60
2021/09/29 07:00:21;;;;;;;17.77;8.73;;;;;;;13.29;65.27;95297.03;1689201;82;21350;-57
2021/09/29 07:02:49;;;;;;;15.03;7.12;;;;;;;13.28;65.51;95293.36;1675334;83;21039;-58
2021/09/29 07:05:17;;;;;;;17.75;8.13;;;;;;;13.25;65.55;95303.94;1688363;83;21115;-56
2021/09/29 07:07:44;;;;;;;18.82;8.83;;;;;;;13.21;65.74;95304.66;1705787;82;21075;-58
2021/09/29 07:10:11;;;;;;;20.23;8.25;;;;;;;13.22;65.85;95303.43;1699845;82;21106;-56
2021/09/29 07:12:39;;;;;;;20.55;8.40;;;;;;;13.29;66.06;95305.95;1688868;83;21137;-58
2021/09/29 07:15:08;;;;;;;14.13;7.83;;;;;;;13.39;66.17;95300.63;1674683;83;21545;-59
2021/09/29 07:17:37;;;;;;;18.62;6.83;;;;;;;13.49;65.67;95300.86;1677638;83;21047;-55
2021/09/29 07:20:09;;;;;;;8.58;6.08;;;;;;;13.56;65.21;95301.96;1680340;83;21053;-60
2021/09/29 07:22:35;;;;;;;9.25;7.00;;;;;;;13.56;64.79;95307.48;1682102;83;21094;-57
2021/09/29 07:25:03;;;;;;;7.42;5.72;;;;;;;13.54;64.97;95312.70;1674580;83;22343;-59
2021/09/29 07:27:30;;;;;;;12.45;7.05;;;;;;;13.60;64.34;95308.91;1695787;83;21054;-55
2021/09/29 07:29:57;;;;;;;12.40;7.03;;;;;;;13.61;64.45;95314.59;1688026;83;21189;-57
2021/09/29 07:32:24;;;;;;;12.55;6.62;;;;;;;13.61;64.44;95315.22;1704499;82;21024;-58
2021/09/29 07:34:52;;;;;;;9.63;5.87;;;;;;;13.60;64.11;95309.53;1698766;82;21558;-57
2021/09/29 07:37:19;;;;;;;12.13;6.83;;;;;;;13.59;64.08;95314.91;1691246;82;21151;-57
2021/09/29 07:39:46;;;;;;;9.65;5.90;;;;;;;13.62;63.84;95320.91;1683070;83;21058;-56
2021/09/29 07:42:13;;;;;;;12.30;6.10;;;;;;;13.62;64.22;95319.52;1676433;84;21075;-59
2021/09/29 07:44:41;;;;;;;8.18;5.03;;;;;;;13.55;63.95;95328.06;1678603;83;21027;-58
2021/09/29 07:47:08;;;;;;;9.03;6.25;;;;;;;13.51;64.16;95328.81;1683501;83;21118;-56
2021/09/29 07:49:34;;;;;;;10.13;6.30;;;;;;;13.56;64.14;95325.45;1686374;83;21477;-57
2021/09/29 07:52:03;;;;;;;15.20;7.75;;;;;;;13.62;64.24;95320.91;1684759;83;21241;-54
2021/09/29 07:54:30;;;;;;;11.15;6.35;;;;;;;13.65;64.49;95320.75;1691343;83;21041;-58
2021/09/29 07:56:57;;;;;;;8.45;6.35;;;;;;;13.70;64.93;95322.95;1697284;82;21120;-62
2021/09/29 07:59:24;;;;;;;10.58;6.55;;;;;;;13.73;64.93;95325.41;1689875;82;21122;-61
2021/09/29 08:01:52;;;;;;;12.33;6.22;;;;;;;13.79;64.62;95316.70;1671707;83;21192;-57
2021/09/29 08:04:22;;;;;;;11.00;6.00;;;;;;;13.80;64.34;95317.61;1700338;82;21125;-61
2021/09/29 08:06:51;;;;;;;14.18;7.22;;;;;;;13.83;64.26;95317.33;1698547;82;21068;-57
2021/09/29 08:09:18;;;;;;;15.38;7.17;;;;;;;13.83;64.03;95318.08;1689270;83;21202;-58
2021/09/29 08:11:45;;;;;;;17.35;6.62;;;;;;;13.87;63.86;95320.72;1686529;83;21123;-58
2021/09/29 08:14:12;;;;;;;6.47;5.35;;;;;;;13.94;63.41;95319.05;1675300;81;21146;-59
2021/09/29 08:16:40;;;;;;;6.40;5.70;;;;;;;13.94;62.93;95321.22;1691918;82;21063;-56
2021/09/29 08:19:06;;;;;;;9.20;5.67;;;;;;;13.87;62.61;95322.09;1697240;82;21070;-65
2021/09/29 08:21:35;;;;;;;8.00;5.30;;;;;;;13.81;63.02;95321.91;1684318;83;21067;-57
2021/09/29 08:24:15;;;;;;;9.13;5.00;;;;;;;13.80;63.04;95329.30;1697426;82;21098;-59
2021/09/29 08:29:27;;;;;;;8.98;4.78;;;;;;;13.74;62.78;95333.86;1695093;82;22187;-58
2021/09/29 08:34:23;;;;;;;5.30;4.47;;;;;;;13.73;62.54;95335.08;1700218;82;21065;-59
2021/09/29 08:39:31;;;;;;;7.33;4.83;;;;;;;13.70;62.57;95333.23;1689530;83;21170;-59
2021/09/29 08:42:16;;;;;;;6.67;5.40;;;;;;;13.67;62.57;95329.36;1697874;83;21190;-57
2021/09/29 08:44:50;;;;;;;6.62;4.53;;;;;;;13.67;62.91;95328.61;1676893;83;21068;-57
2021/09/29 08:47:20;;;;;;;6.28;4.80;;;;;;;13.70;62.48;95330.46;1671691;83;21154;-56
2021/09/29 08:55:27;;;;;;;6.65;4.50;;;;;;;13.75;62.70;95325.72;1655097;83;21065;-56
2021/09/29 09:16:44;;;;;;;7.67;4.60;;;;;;;14.14;60.57;95326.38;1691316;82;21099;-57
2021/09/29 09:19:12;;;;;;;7.12;4.60;;;;;;;14.20;59.97;95325.33;1699964;83;21147;-60
2021/09/29 09:21:54;;;;;;;5.85;3.85;;;;;;;14.20;59.61;95330.11;1703172;83;21161;-61
2021/09/29 09:24:28;;;;;;;9.25;4.62;;;;;;;14.21;59.96;95337.19;1692853;82;21573;-57
2021/09/29 09:27:10;;;;;;;23.12;5.15;;;;;;;14.24;60.23;95326.58;1674493;82;21046;-57
2021/09/29 09:29:49;;;;;;;6.55;4.12;;;;;;;14.25;60.16;95335.04;1667146;82;21128;-59
2021/09/29 09:32:19;;;;;;;9.28;4.30;;;;;;;14.24;59.42;95329.35;1678931;83;21212;-59
2021/09/29 09:34:46;;;;;;;8.78;5.40;;;;;;;14.19;59.31;95327.19;1688590;82;21086;-58
2021/09/29 09:37:15;;;;;;;6.83;4.42;;;;;;;14.16;59.33;95333.64;1678212;83;21216;-56
2021/09/29 09:39:42;;;;;;;10.88;5.30;;;;;;;14.19;59.54;95329.95;1678823;83;21407;-59
2021/09/29 09:42:10;;;;;;;11.08;4.37;;;;;;;14.24;59.22;95329.35;1709605;82;21074;-59
2021/09/29 09:44:40;;;;;;;11.60;4.60;;;;;;;14.24;59.43;95337.66;1696373;83;21138;-61
2021/09/29 09:47:14;;;;;;;5.30;4.20;;;;;;;14.26;59.66;95336.58;1701905;83;21050;-56
2021/09/29 09:49:51;;;;;;;6.22;4.60;;;;;;;14.31;59.28;95333.20;1668532;82;21171;-57
2021/09/29 09:52:32;;;;;;;6.80;4.40;;;;;;;14.33;59.46;95341.84;1671738;82;21079;-58
2021/09/29 09:55:14;;;;;;;7.05;4.60;;;;;;;14.33;59.20;95340.47;1675006;83;21131;-56
2021/09/29 09:57:43;;;;;;;6.67;4.25;;;;;;;14.31;59.10;95336.76;1688866;83;22491;-58
2021/09/29 10:00:13;;;;;;;8.48;4.92;;;;;;;14.36;58.98;95332.00;1652836;85;21230;-59
2021/09/29 10:02:47;;;;;;;4.17;3.77;;;;;;;14.50;58.95;95333.59;1688515;83;21071;-59
2021/09/29 10:05:20;;;;;;;7.22;4.15;;;;;;;14.83;58.02;95334.55;1690336;83;21050;-60
2021/09/29 10:07:48;;;;;;;8.40;4.25;;;;;;;15.35;56.78;95332.91;1685720;82;22034;-61
2021/09/29 10:10:45;;;;;;;8.30;4.70;;;;;;;16.05;56.10;95336.62;1682232;82;21172;-56
2021/09/29 10:13:52;;;;;;;9.68;5.45;;;;;;;16.57;54.59;95338.89;1687065;83;21106;-58
2021/09/29 10:27:33;;;;;;;7.17;4.10;;;;;;;18.42;48.73;95331.88;1662318;84;21026;-60
2021/09/29 10:30:07;;;;;;;5.28;3.83;;;;;;;18.55;47.73;95333.08;1680725;82;21020;-58
2021/09/29 10:32:42;;;;;;;12.07;3.60;;;;;;;18.50;47.10;95330.96;1697677;82;21127;-60
2021/09/29 10:37:54;;;;;;;6.20;4.28;;;;;;;18.56;46.94;95329.05;1693547;83;21151;-56
2021/09/29 10:40:32;;;;;;;7.30;3.65;;;;;;;18.58;47.29;95323.75;1684405;83;21097;-57
2021/09/29 10:43:00;;;;;;;4.83;2.75;;;;;;;18.67;47.75;95318.68;1702220;82;21004;-58
2021/09/29 10:46:12;;;;;;;7.80;3.72;;;;;;;18.84;47.26;95318.28;1668949;84;21126;-57
2021/09/29 11:12:11;;;;;;;7.28;4.30;;;;;;;19.41;44.51;95310.27;1700005;83;20999;-57
2021/09/29 11:36:41;;;;;;;7.65;4.15;;;;;;;19.57;42.96;95294.33;1697543;82;21045;-57
2021/09/29 11:39:30;;;;;;;5.45;3.50;;;;;;;19.19;44.16;95296.06;1680236;82;21126;-59
2021/09/29 12:12:21;;;;;;;6.87;3.98;;;;;;;20.53;43.38;95304.61;1698014;82;21255;-64
2021/09/29 12:14:54;;;;;;;8.08;4.45;;;;;;;21.57;41.75;95300.94;1705619;81;21214;-56
2021/09/29 12:17:34;;;;;;;4.92;3.95;;;;;;;22.31;39.98;95295.83;1676853;82;21588;-59
2021/09/29 12:20:15;;;;;;;8.30;4.30;;;;;;;22.85;38.31;95292.11;1675710;83;21037;-57
2021/09/29 12:22:49;;;;;;;6.47;3.42;;;;;;;23.34;37.05;95294.00;1683674;83;21038;-58
2021/09/29 12:25:31;;;;;;;8.38;4.67;;;;;;;23.43;37.30;95293.72;1685897;83;21195;-56
2021/09/29 12:28:57;;;;;;;6.42;4.50;;;;;;;23.19;36.58;95300.59;1683440;82;21475;-60
2021/09/29 12:30:38;;;;;;;9.90;4.62;;;;;;;22.65;37.33;95302.97;1680931;82;21008;-62
2021/09/29 12:33:17;;;;;;;5.92;4.20;;;;;;;22.28;37.51;95295.45;1694877;83;21577;-62
2021/09/29 12:35:54;;;;;;;9.80;4.22;;;;;;;21.84;37.91;95302.30;1682949;82;21053;-60
2021/09/29 12:38:25;;;;;;;13.25;5.42;;;;;;;21.30;39.03;95302.25;1686727;82;21137;-55
2021/09/29 12:40:52;;;;;;;8.33;4.53;;;;;;;20.76;39.89;95307.67;1686581;82;21029;-62
2021/09/29 12:43:20;;;;;;;17.48;11.73;;;;;;;20.40;40.50;95299.41;1645591;84;21001;-59
2021/09/29 12:45:49;;;;;;;24.00;14.53;;;;;;;20.22;41.19;95297.63;1664947;84;21052;-60
2021/09/29 12:48:20;;;;;;;21.12;13.70;;;;;;;20.01;41.64;95295.38;1643941;85;21409;-60
2021/09/29 12:50:55;;;;;;;11.63;6.12;;;;;;;19.64;42.74;95300.89;1623456;85;21148;-58
2021/09/29 12:56:04;;;;;;;8.95;5.03;;;;;;;19.28;43.91;95294.53;1673094;83;21108;-55
2021/09/29 12:58:31;;;;;;;18.25;13.28;;;;;;;19.00;44.52;95300.36;1684791;82;21546;-61
2021/09/29 13:00:59;;;;;;;12.60;5.58;;;;;;;18.82;45.07;95299.88;1658964;83;20998;-59
2021/09/29 13:03:26;;;;;;;9.00;4.70;;;;;;;18.87;44.64;95301.33;1682240;82;21119;-58
2021/09/29 13:05:55;;;;;;;9.45;5.00;;;;;;;19.27;44.66;95296.41;1684017;83;21074;-57
2021/09/29 13:08:22;;;;;;;5.62;4.80;;;;;;;19.98;43.28;95304.14;1697389;83;21154;-60
2021/09/29 13:10:49;;;;;;;7.50;4.53;;;;;;;20.55;41.88;95299.28;1694904;83;21058;-64
2021/09/29 13:13:17;;;;;;;10.25;4.97;;;;;;;20.91;41.18;95297.11;1697783;82;21232;-59
2021/09/29 13:15:51;;;;;;;5.20;4.15;;;;;;;21.17;40.63;95292.91;1686155;82;21598;-58
2021/09/29 13:21:07;;;;;;;9.55;4.17;;;;;;;21.69;40.46;95284.30;1690671;83;20815;-60
2021/09/29 13:23:34;;;;;;;7.50;4.35;;;;;;;21.97;40.07;95282.31;1667340;82;21050;-56
2021/09/29 13:36:54;;;;;;;8.63;5.05;;;;;;;21.65;39.37;95279.59;1709590;81;21052;-59
2021/09/29 13:39:21;;;;;;;16.30;6.25;;;;;;;21.18;39.92;95285.27;1705226;83;20970;-58
2021/09/29 13:41:52;;;;;;;11.30;6.30;;;;;;;20.79;41.43;95287.09;1704140;82;21155;-58
2021/09/29 13:44:18;;;;;;;9.05;5.78;;;;;;;20.60;42.07;95285.95;1698329;83;21116;-57
2021/09/29 13:46:47;;;;;;;9.33;6.15;;;;;;;20.41;42.40;95290.41;1703390;82;21162;-61
2021/09/29 13:49:14;;;;;;;9.20;6.20;;;;;;;20.23;42.88;95288.73;1672283;83;21083;-60
2021/09/29 13:51:44;;;;;;;14.73;7.37;;;;;;;20.07;43.04;95287.86;1663224;83;21086;-60
2021/09/29 13:54:17;;;;;;;12.30;6.67;;;;;;;19.89;43.42;95288.94;1690186;83;21734;-56
2021/09/29 13:56:52;;;;;;;8.30;5.92;;;;;;;19.67;44.73;95283.77;1687441;82;21532;-62